• Join FlightAware (Why Join?)
  • Login
  • US Flag 
05:45AM EST


 

Airport Tracker/Info


-or-


 

Live Flight TrackerFlight Track Log ✈ JST963 ✈ 21-Aug-2013 ✈ YBCS / CNS - YPAD / ADL

Flight Track Log - Related Links

Times and Time Zones

All times are in EDT time to prevent confusion due to time zone crossing. See the JST963 flight status page for this flight to view local times or setup timezone preferences in your user account.

Time Position Orientation Groundspeed Altitude Reporting Facility
EDT Latitude Longitude Course Direction KTS MPH feet Rate Location/Type
04:36PM -16.9017 145.7789 37° Northeast 179 206 1,900  Level Aus ATC (RADAR)
04:37PM -16.8528 145.8176 37° Northeast 191 220 3,600 1,380 Climbing Aus ATC (RADAR)
04:38PM -16.8461 145.8745 83° East 255 293 4,900 2,400 Climbing Aus ATC (RADAR)
04:39PM -16.9186 145.8749 180° South 265 305 8,200 2,760 Climbing Aus ATC (RADAR)
04:40PM -17.0013 145.8407 202° Southwest 279 321 10,900 1,920 Climbing Aus ATC (RADAR)
04:42PM -17.0933 145.8028 201° Southwest 330 380 12,600 1,680 Climbing Aus ATC (RADAR)
04:43PM -17.1835 145.7659 201° Southwest 347 399 14,400 1,920 Climbing Aus ATC (RADAR)
04:44PM -17.2858 145.7234 202° Southwest 360 414 16,700 1,800 Climbing Aus ATC (RADAR)
04:45PM -17.3806 145.6839 202° Southwest 368 423 18,300 1,440 Climbing Aus ATC (RADAR)
04:46PM -17.4900 145.6388 201° Southwest 387 445 19,800 1,380 Climbing Aus ATC (RADAR)
04:47PM -17.6193 145.5845 202° Southwest 400 460 21,500 1,320 Climbing Aus ATC (RADAR)
04:48PM -17.7441 145.5324 202° Southwest 411 473 23,100 1,200 Climbing Aus ATC (RADAR)
04:49PM -17.8572 145.4848 202° Southwest 408 470 24,200 840 Climbing Aus ATC (RADAR)
04:50PM -17.9843 145.4321 202° Southwest 422 486 25,000 660 Climbing Aus ATC (RADAR)
04:51PM -18.1059 145.3806 202° Southwest 434 499 25,800 840 Climbing Aus ATC (RADAR)
04:53PM -18.2670 145.3127 202° Southwest 438 504 27,200 900 Climbing Aus ATC (RADAR)
04:54PM -18.3526 145.2767 202° Southwest 439 505 27,800 840 Climbing Aus ATC (RADAR)
04:55PM -18.4761 145.2244 202° Southwest 438 504 28,800 840 Climbing Aus ATC (RADAR)
04:56PM -18.6091 145.1684 202° Southwest 438 504 29,700 720 Climbing Aus ATC (RADAR)
04:57PM -18.7335 145.1156 202° Southwest 443 510 30,500 900 Climbing Aus ATC (RADAR)
04:58PM -18.8567 145.0634 202° Southwest 437 503 31,700 840 Climbing Aus ATC (RADAR)
04:59PM -18.9687 145.0160 202° Southwest 433 498 32,300 780 Climbing Aus ATC (RADAR)
05:01PM -19.1736 144.9285 202° Southwest 428 493 33,900 600 Climbing Aus ATC (RADAR)
05:02PM -19.2843 144.8820 202° Southwest 423 487 34,100 60 Climbing Aus ATC (RADAR)
05:03PM -19.4226 144.8223 202° Southwest 431 496 34,100  Level Aus ATC (RADAR)
05:04PM -19.5160 144.7832 202° Southwest 430 495 34,100  Level Aus ATC (RADAR)
05:05PM -19.6091 144.7429 202° Southwest 431 496 34,100  Level Aus ATC (RADAR)
05:06PM -19.7573 144.6793 202° Southwest 426 490 34,100  Level Aus ATC (RADAR)
05:07PM -19.8591 144.6360 202° Southwest 428 493 34,100  Level Aus ATC (RADAR)
05:08PM -19.9320 144.6044 202° Southwest 422 486 34,100  Level Aus ATC (RADAR)
05:08PM -19.9959 144.5770 202° Southwest 422 486 34,100  Level Aus ATC (RADAR)
05:09PM -20.0598 144.5493 202° Southwest 422 486 34,100  Level Aus ATC (RADAR)
05:09PM -20.1156 144.5260 202° Southwest 428 493 34,100  Level Aus ATC (RADAR)
05:10PM -20.1787 144.4986 202° Southwest 420 483 34,100  Level Aus ATC (RADAR)
05:11PM -20.2969 144.4479 202° Southwest 421 484 34,100  Level Aus ATC (RADAR)
05:12PM -20.4051 144.4008 202° Southwest 417 480 34,100  Level Aus ATC (RADAR)
05:13PM -20.4774 144.3694 202° Southwest 417 480 34,100  Level Aus ATC (RADAR)
05:13PM -20.5404 144.3421 202° Southwest 416 479 34,100  Level Aus ATC (RADAR)
05:14PM -20.6031 144.3152 202° Southwest 414 476 34,100  Level Aus ATC (RADAR)
05:14PM -20.6665 144.2885 202° Southwest 417 480 34,100  Level Aus ATC (RADAR)
05:15PM -20.7280 144.2608 203° Southwest 410 472 34,100  Level Aus ATC (RADAR)
05:17PM -20.9052 144.2043 197° South 425 489 34,100  Level Aus ATC (RADAR)
05:17PM -21.0014 144.1830 192° South 422 486 34,100  Level Aus ATC (RADAR)
05:18PM -21.0771 144.1650 193° South 418 481 34,100  Level Aus ATC (RADAR)
05:19PM -21.1539 144.1481 192° South 422 486 34,100  Level Aus ATC (RADAR)
05:19PM -21.2207 144.1337 191° South 420 483 34,100  Level Aus ATC (RADAR)
05:20PM -21.2780 144.1210 192° South 420 483 34,100  Level Aus ATC (RADAR)
05:22PM -21.4968 144.0723 192° South 420 483 34,100  Level Aus ATC (RADAR)
05:23PM -21.5922 144.0513 192° South 419 482 34,100  Level Aus ATC (RADAR)
05:23PM -21.6497 144.0383 192° South 422 486 34,100  Level Aus ATC (RADAR)
05:24PM -21.7164 144.0233 192° South 421 484 34,100  Level Aus ATC (RADAR)
05:24PM -21.7824 144.0073 193° South 418 481 34,100  Level Aus ATC (RADAR)
05:25PM -21.8474 143.9901 194° South 414 476 34,100  Level Aus ATC (RADAR)
05:26PM -22.0226 143.9520 191° South 427 491 34,200  Climbing Aus ATC (RADAR)
05:27PM -22.0904 143.9361 192° South 429 494 34,200  Level Aus ATC (RADAR)
05:28PM -22.1867 143.9115 193° South 428 493 34,200  Level Aus ATC (RADAR)
05:28PM -22.2770 143.8933 191° South 435 501 34,200  Level Aus ATC (RADAR)
05:29PM -22.3372 143.8804 191° South 439 505 34,200  Level Aus ATC (RADAR)
05:30PM -22.4066 143.8658 191° South 436 502 34,200  Level Aus ATC (RADAR)
05:30PM -22.4748 143.8499 192° South 433 498 34,200  Level Aus ATC (RADAR)
05:31PM -22.5996 143.8199 192° South 425 489 34,200  Level Aus ATC (RADAR)
05:32PM -22.6677 143.8054 191° South 427 491 34,200  Level Aus ATC (RADAR)
05:32PM -22.7260 143.7936 191° South 425 489 34,200  Level Aus ATC (RADAR)
05:35PM -23.1096 143.7066 201° Southwest 34,000  Descending Aus ATC (Calculated)
05:37PM -23.2250 143.6803 192° South  Level FlightAware Approximate
05:38PM -23.3284 143.6567 192° South  Level FlightAware Approximate
05:39PM -23.4317 143.6331 192° South  Level FlightAware Approximate
05:40PM -23.5351 143.6095 192° South  Level FlightAware Approximate
05:41PM -23.6384 143.5858 192° South  Level FlightAware Approximate
05:42PM -23.7418 143.5621 192° South  Level FlightAware Approximate
05:43PM -23.8451 143.5383 192° South  Level FlightAware Approximate
05:44PM -23.9485 143.5145 192° South  Level FlightAware Approximate
05:45PM -24.0518 143.4907 192° South  Level FlightAware Approximate
05:46PM -24.1551 143.4668 192° South  Level FlightAware Approximate
05:46PM -24.1195 143.2733 201° Southwest 34,000  Level Aus ATC (Calculated)
05:47PM -24.2585 143.4429 192° South  Level FlightAware Approximate
05:48PM -24.2617 143.4446 132° Southeast  Level FlightAware Approximate
05:49PM -24.1906 143.3589 312° West  Level FlightAware Approximate
05:49PM -24.4286 143.1393 201° Southwest 34,000  Level Aus ATC (Calculated)
05:49PM -24.4752 143.1190 201° Southwest 34,000  Level Aus ATC (Calculated)
05:50PM -24.5280 143.1001 205° Southwest  Level Estimated
05:51PM -24.6061 143.0620 202° Southwest  Level FlightAware Approximate
05:52PM -24.7043 143.0191 202° Southwest  Level FlightAware Approximate
05:53PM -24.8024 142.9762 202° Southwest  Level FlightAware Approximate
05:54PM -24.9006 142.9332 202° Southwest  Level FlightAware Approximate
05:54PM -25.0262 142.8781 201° Southwest 34,000  Level Aus ATC (Calculated)
05:55PM -24.9987 142.8902 202° Southwest  Level FlightAware Approximate
05:56PM -25.1276 142.8335 202° Southwest  Level FlightAware Approximate
05:57PM -25.2256 142.7903 202° Southwest  Level FlightAware Approximate
05:57PM -25.2499 142.7796 201° Southwest 34,000  Level Aus ATC (Calculated)
05:59PM -25.4362 142.6973 202° Southwest  Level FlightAware Approximate
06:00PM -25.5343 142.6538 202° Southwest  Level FlightAware Approximate
06:01PM -25.6323 142.6103 202° Southwest  Level FlightAware Approximate
06:02PM -25.7303 142.5668 202° Southwest  Level FlightAware Approximate
06:03PM -25.8284 142.5231 202° Southwest  Level FlightAware Approximate
06:04PM -25.9264 142.4794 202° Southwest  Level FlightAware Approximate
06:05PM -26.0243 142.4356 202° Southwest  Level FlightAware Approximate
06:06PM -26.1223 142.3917 202° Southwest  Level FlightAware Approximate
06:07PM -26.2203 142.3478 202° Southwest  Level FlightAware Approximate
06:08PM -26.3182 142.3038 202° Southwest  Level FlightAware Approximate
06:08PM -26.3975 142.2681 201° Southwest 34,000  Level Aus ATC (Calculated)
06:09PM -26.4162 142.2597 202° Southwest  Level FlightAware Approximate
06:09PM -26.5239 142.2111 201° Southwest 34,000  Level Aus ATC (Calculated)
06:10PM -26.4987 142.2225 202° Southwest  Level FlightAware Approximate
06:11PM -26.6251 142.1653 202° Southwest  Level FlightAware Approximate
06:12PM -26.7230 142.1210 202° Southwest  Level FlightAware Approximate
06:13PM -26.8209 142.0766 202° Southwest  Level FlightAware Approximate
06:14PM -26.9187 142.0321 202° Southwest  Level FlightAware Approximate
06:15PM -27.0166 141.9876 202° Southwest  Level FlightAware Approximate
06:16PM -27.1144 141.9429 202° Southwest  Level FlightAware Approximate
06:17PM -27.2122 141.8982 202° Southwest  Level FlightAware Approximate
06:18PM -27.3101 141.8534 202° Southwest  Level FlightAware Approximate
06:19PM -27.4079 141.8085 202° Southwest  Level FlightAware Approximate
06:19PM -27.4083 141.8083 200° South 12,400  Level Aus ATC (Calculated)
06:20PM -27.3027 141.8083 North  Level FlightAware Approximate
06:21PM -27.4083 141.8083 180° South  Level FlightAware Approximate
06:21PM -27.6749 141.6954 201° Southwest 12,400  Level Aus ATC (Calculated)
06:22PM -27.4873 141.8874 138° Southeast  Level FlightAware Approximate
06:23PM -27.7908 141.6488 201° Southwest  Level Estimated
06:23PM -27.8348 141.6273 201° Southwest 12,400  Level Aus ATC (Calculated)
06:24PM -27.9414 141.5819 201° Southwest 12,400 600 Level Aus ATC (Calculated)
06:25PM -27.9717 141.5690 201° Southwest  Level FlightAware Approximate
06:25PM -27.9947 141.5591 201° Southwest 12,400  Level Aus ATC (Calculated)
06:26PM -28.1546 141.4907 201° Southwest 12,400 660 Level Aus ATC (Calculated)
06:27PM -28.1706 141.4838 201° Southwest  Level FlightAware Approximate
06:28PM -28.3092 141.4242 201° Southwest  Level FlightAware Approximate
06:29PM -28.4069 141.3822 201° Southwest  Level FlightAware Approximate
06:30PM -28.5046 141.3400 201° Southwest  Level FlightAware Approximate
06:31PM -28.6023 141.2978 201° Southwest  Level FlightAware Approximate
06:32PM -28.6999 141.2555 201° Southwest  Level FlightAware Approximate
06:32PM -28.7403 141.2380 201° Southwest 12,400  Level Aus ATC (Calculated)
06:32PM -28.7403 141.2380 201° Southwest 12,400 840 Level Aus ATC (Calculated)
06:34PM -28.8704 141.1815 201° Southwest  Level FlightAware Approximate
06:35PM -28.9681 141.1389 201° Southwest  Level FlightAware Approximate
06:36PM -29.0657 141.0963 201° Southwest  Level FlightAware Approximate
06:37PM -29.1632 141.0536 201° Southwest  Level FlightAware Approximate
06:38PM -29.2608 141.0109 201° Southwest  Level FlightAware Approximate
06:39PM -29.3584 140.9680 201° Southwest  Level FlightAware Approximate
06:40PM -29.4559 140.9251 201° Southwest  Level FlightAware Approximate
06:40PM -29.5381 140.8889 201° Southwest 12,400  Level Aus ATC (Calculated)
06:42PM -29.6632 140.8336 201° Southwest  Level FlightAware Approximate
06:43PM -29.7607 140.7904 201° Southwest  Level FlightAware Approximate
06:44PM -29.8582 140.7472 201° Southwest  Level FlightAware Approximate
06:45PM -29.9557 140.7038 201° Southwest  Level FlightAware Approximate
06:46PM -30.0532 140.6604 201° Southwest  Level FlightAware Approximate
06:46PM -30.1225 140.6294 201° Southwest 12,400  Level Aus ATC (Calculated)
06:47PM -30.1506 140.6169 201° Southwest  Level FlightAware Approximate
06:48PM -30.2573 140.5691 201° Southwest  Level FlightAware Approximate
06:49PM -30.3547 140.5254 201° Southwest  Level FlightAware Approximate
06:50PM -30.4521 140.4816 201° Southwest  Level FlightAware Approximate
06:51PM -30.5495 140.4377 201° Southwest  Level FlightAware Approximate
06:51PM -30.5472 140.4388 201° Southwest 12,400  Level Aus ATC (Calculated)
06:51PM -30.6002 140.4148 201° Southwest 12,400 3,060 Level Aus ATC (Calculated)
06:52PM -30.6445 140.3948 201° Southwest  Level FlightAware Approximate
06:53PM -30.7024 140.3686 201° Southwest  Level FlightAware Approximate
06:54PM -30.7998 140.3245 201° Southwest  Level FlightAware Approximate
06:55PM -30.8971 140.2803 201° Southwest  Level FlightAware Approximate
06:56PM -30.9944 140.2360 201° Southwest  Level FlightAware Approximate
06:57PM -31.0917 140.1917 201° Southwest  Level FlightAware Approximate
06:57PM -31.1835 140.1497 28° Northeast 12,400  Level Aus ATC (Calculated)
06:58PM -31.1450 140.1739 201° Southwest 397 457 34,200 15,900 Climbing Aus ATC (RADAR)
06:59PM -31.2459 140.1219 204° Southwest 396 456 34,200  Level Aus ATC (RADAR)
06:59PM -31.3224 140.0847 203° Southwest 397 457 34,200  Level Aus ATC (RADAR)
07:00PM -31.3906 140.0522 202° Southwest 397 457 34,200  Level Aus ATC (RADAR)
07:01PM -31.4691 140.0199 199° South 400 460 34,200  Level Aus ATC (RADAR)
07:02PM -31.6154 139.9516 202° Southwest 401 461 34,200  Level Aus ATC (RADAR)
07:03PM -31.7016 139.9097 202° Southwest 404 465 34,200  Level Aus ATC (RADAR)
07:04PM -31.7625 139.8829 201° Southwest 402 463 34,200  Level Aus ATC (RADAR)
07:04PM -31.8498 139.8441 201° Southwest 402 463 34,200  Level Aus ATC (RADAR)
07:05PM -31.9105 139.8160 201° Southwest 405 466 34,200  Level Aus ATC (RADAR)
07:06PM -31.9875 139.7791 202° Southwest 399 459 34,200  Level Aus ATC (RADAR)
07:07PM -32.0904 139.7302 202° Southwest 401 461 34,200  Level Aus ATC (RADAR)
07:08PM -32.2195 139.6706 201° Southwest 400 460 34,200  Level Aus ATC (RADAR)
07:09PM -32.3228 139.6233 201° Southwest 399 459 34,200  Level Aus ATC (RADAR)
07:10PM -32.4003 139.5872 201° Southwest 400 460 34,200  Level Aus ATC (RADAR)
07:10PM -32.4602 139.5571 203° Southwest 403 464 34,200  Level Aus ATC (RADAR)
07:11PM -32.5462 139.5178 201° Southwest 401 461 34,200  Level Aus ATC (RADAR)
07:13PM -32.7102 139.4410 201° Southwest 405 466 34,200  Level Aus ATC (RADAR)
07:14PM -32.8142 139.3904 202° Southwest 406 467 34,200 -60 Level Aus ATC (RADAR)
07:14PM -32.8924 139.3530 202° Southwest 406 467 34,100  Descending Aus ATC (RADAR)
07:15PM -32.9532 139.3242 202° Southwest 404 465 34,200 60 Climbing Aus ATC (RADAR)
07:16PM -33.0132 139.2950 202° Southwest 400 460 34,200  Level Aus ATC (RADAR)
07:16PM -33.0823 139.2620 202° Southwest 403 464 34,200 -120 Level Aus ATC (RADAR)
07:17PM -33.1422 139.2334 202° Southwest 400 460 34,100 -60 Descending Aus ATC (RADAR)
07:18PM -33.2610 139.1765 202° Southwest 396 456 34,100  Level Aus ATC (RADAR)
07:19PM -33.3624 139.1274 202° Southwest 397 457 34,100  Level Aus ATC (RADAR)
07:20PM -33.4468 139.0867 202° Southwest 392 451 34,200 60 Climbing Aus ATC (RADAR)
07:20PM -33.5058 139.0573 203° Southwest 395 455 34,200 -1,020 Level Aus ATC (RADAR)
07:21PM -33.5992 139.0137 201° Southwest 397 457 32,700 -2,820 Descending Aus ATC (RADAR)
07:23PM -33.7523 138.9391 202° Southwest 398 458 27,500 -3,360 Descending Aus ATC (RADAR)
07:24PM -33.8372 138.8977 202° Southwest 397 457 24,900 -3,000 Descending Aus ATC (RADAR)
07:24PM -33.8965 138.8684 202° Southwest 396 456 23,300 -2,760 Descending Aus ATC (RADAR)
07:25PM -33.9888 138.8238 202° Southwest 391 450 20,800 -2,700 Descending Aus ATC (RADAR)
07:26PM -34.0463 138.7951 202° Southwest 386 444 19,300 -2,640 Descending Aus ATC (RADAR)
07:27PM -34.1285 138.7547 202° Southwest 384 442 17,100 -2,700 Descending Aus ATC (RADAR)
07:27PM -34.1851 138.7273 202° Southwest 378 435 15,500 -2,640 Descending Aus ATC (RADAR)
07:28PM -34.3099 138.6925 193° South 366 421 12,300 -2,580 Descending Aus ATC (RADAR)
07:29PM -34.4056 138.6671 192° South 349 402 9,800 -2,460 Descending Aus ATC (RADAR)
07:30PM -34.4823 138.6471 192° South 338 389 7,900 -2,460 Descending Aus ATC (RADAR)
07:31PM -34.5348 138.6334 192° South 331 381 6,400 -1,500 Descending Aus ATC (RADAR)
07:32PM -34.5975 138.6172 192° South 302 348 5,900 -900 Descending Aus ATC (RADAR)
07:33PM -34.7017 138.6720 157° South 277 319 4,400 -900 Descending Aus ATC (RADAR)
07:34PM -34.7639 138.7342 141° Southeast 259 298 3,600 -720 Descending Aus ATC (RADAR)
07:35PM -34.8059 138.7351 179° South 215 247 3,100 -360 Descending Aus ATC (RADAR)
07:36PM -34.8272 138.7084 226° Southwest 192 221 3,200 -240 Climbing Aus ATC (RADAR)
07:36PM -34.8541 138.6692 230° Southwest 178 205 2,800 -720 Descending Aus ATC (RADAR)
07:37PM -34.8796 138.6319 230° Southwest 171 197 2,000 -900 Descending Aus ATC (RADAR)
07:38PM -34.9114 138.5860 230° Southwest 135 155 1,000 -840 Descending Aus ATC (RADAR)
07:39PM -34.9357 138.5504 230° Southwest 137 158 200 -840 Descending Aus ATC (RADAR)